Terminal Aerodrome Forecast
Issued by NWS Wilmington, NC

Home | Current Version | Previous Version | Text Only | Print | Product List | Glossary On
Versions: 1 2 3 4 5 6 7 8 9 10 11 12 13 14 15 16 17
688
FTUS42 KILM 192320
TAFLBT
TAF
KLBT 192320Z 2000/2024 VRB03KT P6SM OVC250
     FM200900 09003KT P6SM OVC100
     FM201200 10003KT P6SM OVC050
      TEMPO 2012/2015 4SM -RA OVC050
     FM201500 16004KT 4SM BR OVC015
      TEMPO 2015/2018 4SM -DZ OVC015=

USA.gov is the U.S. government's official web portal to all federal, state and local government web resources and services.